Time;durP1;ratioP1;P1;durP2;ratioP2;P2;SDS_P1;SDS_P2;PMS_P1;PMS_P2;Temp;Humidity;BMP_temperature;BMP_pressure;BME280_temperature;BME280_humidity;BME280_pressure;Samples;Min_cycle;Max_cycle;Signal;HPM_P1;HPM_P2
2021/10/03 00:01:16;;;;;;;1.60;1.48;;;15.90;99.90;;;;;;5057864;28;20028;-69
2021/10/03 00:03:46;;;;;;;2.65;1.33;;;16.00;99.90;;;;;;5051751;28;20035;-69
2021/10/03 00:06:12;;;;;;;1.50;1.40;;;16.00;99.90;;;;;;5050390;28;20037;-69
2021/10/03 00:08:38;;;;;;;0.98;0.77;;;16.00;99.90;;;;;;5068700;28;20047;-69
2021/10/03 00:11:04;;;;;;;2.58;2.00;;;16.00;99.90;;;;;;5057050;28;20024;-70
2021/10/03 00:13:32;;;;;;;6.03;1.83;;;16.00;99.90;;;;;;5056261;28;20113;-70
2021/10/03 00:15:58;;;;;;;0.60;0.60;;;16.00;99.90;;;;;;5063519;28;20038;-69
2021/10/03 00:18:23;;;;;;;2.33;2.03;;;16.00;99.90;;;;;;5062903;28;20103;-70
2021/10/03 00:20:49;;;;;;;2.20;1.42;;;16.10;99.70;;;;;;5064744;28;20036;-70
2021/10/03 00:23:15;;;;;;;1.75;1.65;;;16.10;99.60;;;;;;5072761;28;20032;-69
2021/10/03 00:25:40;;;;;;;2.33;0.65;;;16.00;99.60;;;;;;5065519;28;20035;-70
2021/10/03 00:28:07;;;;;;;3.65;1.40;;;16.00;99.30;;;;;;5064474;28;20040;-69
2021/10/03 00:30:38;;;;;;;3.17;1.83;;;16.10;99.00;;;;;;5058135;28;20053;-70
2021/10/03 00:33:04;;;;;;;2.55;1.85;;;16.00;99.30;;;;;;5061062;28;20066;-70
2021/10/03 00:35:30;;;;;;;1.75;1.27;;;16.00;98.90;;;;;;5065992;28;20047;-70
2021/10/03 00:37:59;;;;;;;1.00;1.00;;;16.00;98.90;;;;;;5071540;28;20531;-70
2021/10/03 00:40:25;;;;;;;1.27;1.17;;;16.00;98.50;;;;;;5066276;28;20052;-69
2021/10/03 00:42:51;;;;;;;3.78;1.30;;;16.00;98.20;;;;;;5069353;28;20056;-70
2021/10/03 00:45:17;;;;;;;2.55;1.58;;;16.00;98.20;;;;;;5056646;28;20060;-70
2021/10/03 00:47:43;;;;;;;3.60;1.83;;;16.00;98.20;;;;;;5055607;28;20025;-71
2021/10/03 00:50:13;;;;;;;0.90;0.88;;;16.00;98.00;;;;;;5058733;28;20031;-70
2021/10/03 00:52:40;;;;;;;1.90;1.80;;;16.00;98.20;;;;;;5059253;28;20112;-70
2021/10/03 00:55:06;;;;;;;4.72;1.88;;;16.00;98.10;;;;;;5058620;28;20085;-69
2021/10/03 00:57:32;;;;;;;4.38;1.92;;;16.00;97.50;;;;;;5072095;28;20445;-70
2021/10/03 00:59:57;;;;;;;1.02;1.02;;;16.00;97.80;;;;;;5065826;28;20039;-70
2021/10/03 01:02:23;;;;;;;2.13;1.40;;;16.00;97.40;;;;;;5068370;28;20673;-69
2021/10/03 01:04:49;;;;;;;5.57;3.05;;;15.90;97.20;;;;;;5042904;28;20025;-70
2021/10/03 01:07:14;;;;;;;1.70;1.60;;;15.90;97.10;;;;;;5065158;28;20078;-70
2021/10/03 01:09:40;;;;;;;1.73;1.50;;;15.90;96.90;;;;;;5062847;28;20029;-70
2021/10/03 01:12:05;;;;;;;2.50;1.95;;;15.90;96.60;;;;;;5058099;28;20029;-70
2021/10/03 01:14:31;;;;;;;0.77;0.77;;;15.80;96.60;;;;;;5071456;28;20028;-70
2021/10/03 01:16:56;;;;;;;0.80;0.80;;;15.80;96.50;;;;;;5063831;28;20071;-70
2021/10/03 01:19:22;;;;;;;3.15;1.70;;;15.80;96.10;;;;;;5064370;28;20027;-70
2021/10/03 01:21:47;;;;;;;1.85;1.30;;;15.70;96.20;;;;;;5056971;28;20036;-70
2021/10/03 01:24:14;;;;;;;1.27;1.17;;;15.70;96.10;;;;;;5063908;28;20406;-69
2021/10/03 01:26:40;;;;;;;2.78;1.58;;;15.70;95.90;;;;;;5055779;28;20036;-69
2021/10/03 01:29:08;;;;;;;1.20;1.10;;;15.70;95.70;;;;;;5060703;28;20127;-70
2021/10/03 01:31:34;;;;;;;2.10;1.55;;;15.70;95.50;;;;;;5065013;28;20103;-69
2021/10/03 01:34:00;;;;;;;4.10;2.03;;;15.70;95.30;;;;;;5048813;28;20117;-69
2021/10/03 01:36:26;;;;;;;2.25;1.45;;;15.70;95.10;;;;;;5063909;28;20067;-70
2021/10/03 01:38:52;;;;;;;1.05;0.98;;;15.80;94.90;;;;;;5074796;28;20509;-70
2021/10/03 01:41:17;;;;;;;1.38;1.08;;;15.70;94.80;;;;;;5053659;28;20119;-70
2021/10/03 01:43:43;;;;;;;0.63;0.63;;;15.80;94.60;;;;;;5045195;28;20035;-70
2021/10/03 01:46:09;;;;;;;0.93;0.93;;;15.80;94.90;;;;;;5053040;28;20055;-71
2021/10/03 01:48:35;;;;;;;2.00;0.95;;;15.70;94.50;;;;;;5063241;28;20025;-70
2021/10/03 01:51:04;;;;;;;1.58;1.48;;;15.70;94.40;;;;;;5054244;28;20032;-70
2021/10/03 01:53:40;;;;;;;3.03;1.65;;;15.70;94.20;;;;;;5045806;28;20054;-70
2021/10/03 01:56:07;;;;;;;1.05;0.93;;;15.70;94.00;;;;;;5054362;28;20029;-69
2021/10/03 01:58:36;;;;;;;9.27;1.00;;;15.70;94.20;;;;;;5056563;28;20109;-69
2021/10/03 02:01:09;;;;;;;1.15;0.55;;;15.70;94.00;;;;;;5034247;28;20032;-69
2021/10/03 02:03:34;;;;;;;2.80;1.15;;;15.70;93.60;;;;;;5037419;28;20140;-70
2021/10/03 02:06:00;;;;;;;1.35;1.08;;;15.70;93.80;;;;;;5039085;28;20029;-70
2021/10/03 02:08:25;;;;;;;1.27;0.93;;;15.60;93.60;;;;;;5042843;28;20063;-69
2021/10/03 02:10:52;;;;;;;1.48;1.38;;;15.60;93.50;;;;;;5043579;28;20112;-70
2021/10/03 02:13:20;;;;;;;1.75;1.65;;;15.70;93.50;;;;;;5047079;28;20053;-70
2021/10/03 02:15:47;;;;;;;2.60;2.10;;;15.60;93.60;;;;;;5042249;28;20112;-70
2021/10/03 02:18:15;;;;;;;4.57;2.17;;;15.60;93.70;;;;;;5046247;28;20059;-70
2021/10/03 02:20:42;;;;;;;0.63;0.63;;;15.60;93.70;;;;;;5044603;28;20052;-70
2021/10/03 02:23:09;;;;;;;2.85;1.55;;;15.60;93.60;;;;;;5050141;28;20029;-70
2021/10/03 02:25:43;;;;;;;0.70;0.70;;;15.60;93.40;;;;;;5045782;28;20033;-70
2021/10/03 02:28:13;;;;;;;2.40;1.98;;;15.50;93.30;;;;;;5027324;28;20464;-70
2021/10/03 02:30:40;;;;;;;1.08;0.98;;;15.50;93.20;;;;;;5035000;28;20043;-70
2021/10/03 02:33:05;;;;;;;1.40;1.35;;;15.60;93.00;;;;;;5050859;28;20037;-70
2021/10/03 02:35:31;;;;;;;1.27;1.10;;;15.60;92.70;;;;;;5045125;28;20025;-70
2021/10/03 02:37:56;;;;;;;0.93;0.93;;;15.60;92.50;;;;;;5044224;28;20162;-70
2021/10/03 02:40:22;;;;;;;1.88;1.30;;;15.60;92.70;;;;;;5052246;28;20025;-69
2021/10/03 02:42:48;;;;;;;3.15;1.05;;;15.60;92.80;;;;;;5047511;28;20044;-70
2021/10/03 02:45:13;;;;;;;5.30;1.08;;;15.60;92.50;;;;;;5045087;28;20025;-70
2021/10/03 02:47:39;;;;;;;0.55;0.55;;;15.70;92.30;;;;;;5049227;28;20025;-70
2021/10/03 02:50:06;;;;;;;1.27;1.05;;;15.60;92.30;;;;;;5044905;28;20024;-70
2021/10/03 02:52:32;;;;;;;3.10;1.85;;;15.70;92.20;;;;;;5045121;28;20021;-70
2021/10/03 02:54:58;;;;;;;1.58;1.30;;;15.70;92.10;;;;;;5042602;28;20029;-70
2021/10/03 02:57:23;;;;;;;2.88;1.67;;;15.60;92.10;;;;;;5043583;28;20048;-70
2021/10/03 02:59:48;;;;;;;0.55;0.55;;;15.60;91.70;;;;;;5033497;28;20025;-70
2021/10/03 03:02:14;;;;;;;1.67;1.48;;;15.70;91.80;;;;;;5044515;28;20043;-70
2021/10/03 03:04:40;;;;;;;2.45;1.83;;;15.60;91.80;;;;;;5038347;28;20094;-70
2021/10/03 03:07:05;;;;;;;6.90;1.92;;;15.60;91.70;;;;;;5050302;28;20033;-70
2021/10/03 03:09:31;;;;;;;0.82;0.73;;;15.60;91.60;;;;;;5047817;28;20025;-70
2021/10/03 03:11:56;;;;;;;1.38;1.27;;;15.60;91.90;;;;;;5044030;28;20021;-70
2021/10/03 03:14:22;;;;;;;2.22;1.40;;;15.60;92.00;;;;;;5043249;28;20028;-70
2021/10/03 03:16:50;;;;;;;5.47;2.33;;;15.50;92.10;;;;;;5039539;28;20041;-69
2021/10/03 03:19:17;;;;;;;0.98;0.98;;;15.50;92.00;;;;;;5049393;28;20044;-70
2021/10/03 03:21:43;;;;;;;1.25;0.85;;;15.50;91.80;;;;;;5050268;28;20029;-70
2021/10/03 03:24:09;;;;;;;1.13;0.73;;;15.50;91.80;;;;;;5048127;28;20036;-70
2021/10/03 03:26:35;;;;;;;1.52;1.10;;;15.50;91.60;;;;;;5041334;28;20174;-70
2021/10/03 03:29:01;;;;;;;2.42;2.22;;;15.50;91.40;;;;;;5042409;28;20025;-69
2021/10/03 03:31:27;;;;;;;1.63;1.38;;;15.60;91.50;;;;;;5042477;28;20100;-70
2021/10/03 03:33:52;;;;;;;0.40;0.40;;;15.60;91.60;;;;;;5042126;28;20503;-70
2021/10/03 03:36:18;;;;;;;3.22;1.50;;;15.60;91.90;;;;;;5041393;28;20132;-70
2021/10/03 03:38:45;;;;;;;2.15;1.20;;;15.60;91.60;;;;;;5049181;28;20053;-69
2021/10/03 03:41:12;;;;;;;2.53;1.83;;;15.60;91.60;;;;;;5049081;28;20032;-70
2021/10/03 03:43:37;;;;;;;2.92;1.95;;;15.60;91.40;;;;;;5046021;28;20033;-70
2021/10/03 03:46:04;;;;;;;2.83;1.75;;;15.60;91.40;;;;;;5041433;28;20029;-69
2021/10/03 03:48:30;;;;;;;0.98;0.80;;;15.60;91.30;;;;;;5046165;28;20021;-69
2021/10/03 03:50:56;;;;;;;1.60;1.40;;;15.60;91.30;;;;;;5048029;28;20044;-70
2021/10/03 03:53:21;;;;;;;1.15;1.02;;;15.60;91.20;;;;;;5048631;28;20080;-70
2021/10/03 03:55:47;;;;;;;1.55;1.23;;;15.60;91.20;;;;;;5040492;28;20037;-70
2021/10/03 03:58:12;;;;;;;5.00;1.98;;;15.60;91.40;;;;;;5059720;28;20392;-71
2021/10/03 04:00:38;;;;;;;1.17;0.88;;;15.60;91.20;;;;;;5060500;28;20033;-70
2021/10/03 04:03:03;;;;;;;1.48;1.33;;;15.60;91.30;;;;;;5069209;28;20032;-70
2021/10/03 04:05:29;;;;;;;0.80;0.80;;;15.60;91.20;;;;;;5068601;28;20498;-70
2021/10/03 04:07:54;;;;;;;1.23;0.98;;;15.60;91.30;;;;;;5054929;28;20045;-70
2021/10/03 04:10:20;;;;;;;0.80;0.77;;;15.60;91.20;;;;;;5056243;28;20591;-71
2021/10/03 04:12:45;;;;;;;2.63;1.67;;;15.50;90.90;;;;;;5055247;28;20387;-69
2021/10/03 04:15:11;;;;;;;1.85;1.75;;;15.50;90.90;;;;;;5048315;28;20029;-70
2021/10/03 04:17:37;;;;;;;0.50;0.50;;;15.60;90.80;;;;;;5059731;28;20101;-69
2021/10/03 04:20:06;;;;;;;1.67;1.40;;;15.60;90.80;;;;;;5058115;28;20060;-70
2021/10/03 04:22:32;;;;;;;0.80;0.80;;;15.60;91.10;;;;;;5067794;28;20035;-70
2021/10/03 04:24:58;;;;;;;2.35;1.42;;;15.60;91.00;;;;;;5050237;28;20024;-69
2021/10/03 04:27:24;;;;;;;2.17;1.00;;;15.50;91.10;;;;;;5057410;28;20035;-69
2021/10/03 04:29:49;;;;;;;3.10;1.30;;;15.50;91.70;;;;;;5056785;28;20035;-69
2021/10/03 04:32:15;;;;;;;1.85;1.73;;;15.50;90.90;;;;;;5069679;28;20119;-70
2021/10/03 04:34:41;;;;;;;1.42;1.33;;;15.50;91.00;;;;;;5066707;28;20490;-70
2021/10/03 04:37:06;;;;;;;0.35;0.35;;;15.40;91.00;;;;;;5062097;28;20082;-69
2021/10/03 04:39:32;;;;;;;0.63;0.63;;;15.50;91.30;;;;;;5067381;28;20039;-70
2021/10/03 04:41:58;;;;;;;1.35;1.25;;;15.40;91.20;;;;;;5052892;28;20040;-70
2021/10/03 04:44:24;;;;;;;1.67;1.58;;;15.40;90.80;;;;;;5062364;28;20074;-70
2021/10/03 04:46:50;;;;;;;1.15;0.77;;;15.40;90.80;;;;;;5061946;28;20028;-69
2021/10/03 04:49:15;;;;;;;1.67;1.05;;;15.40;91.10;;;;;;5051449;28;20443;-70
2021/10/03 04:51:41;;;;;;;0.85;0.73;;;15.40;91.00;;;;;;5065189;28;20507;-70
2021/10/03 04:54:07;;;;;;;3.13;1.10;;;15.40;91.20;;;;;;5061031;28;20445;-70
2021/10/03 04:56:32;;;;;;;0.88;0.88;;;15.40;91.40;;;;;;5060565;28;20035;-70
2021/10/03 04:58:58;;;;;;;1.27;0.88;;;15.40;91.00;;;;;;5057022;28;20522;-70
2021/10/03 05:01:23;;;;;;;2.50;1.27;;;15.40;91.30;;;;;;5065971;28;20062;-70
2021/10/03 05:03:49;;;;;;;5.68;1.55;;;15.40;91.20;;;;;;5067114;28;20033;-70
2021/10/03 05:06:15;;;;;;;1.05;0.88;;;15.40;91.30;;;;;;5058374;28;20028;-70
2021/10/03 05:08:40;;;;;;;1.20;0.85;;;15.40;91.50;;;;;;5054100;28;20020;-69
2021/10/03 05:11:06;;;;;;;3.17;0.63;;;15.40;91.60;;;;;;5061146;28;20020;-70
2021/10/03 05:13:32;;;;;;;3.33;1.80;;;15.40;91.20;;;;;;5067101;28;20478;-70
2021/10/03 05:15:58;;;;;;;1.65;1.17;;;15.50;91.20;;;;;;5051691;28;20112;-70
2021/10/03 05:18:24;;;;;;;1.58;0.82;;;15.50;91.00;;;;;;5065834;28;20565;-69
2021/10/03 05:20:50;;;;;;;2.10;1.45;;;15.50;91.10;;;;;;5054438;28;20314;-70
2021/10/03 05:23:16;;;;;;;1.88;1.70;;;15.50;91.10;;;;;;5067162;28;20055;-70
2021/10/03 05:25:42;;;;;;;5.20;1.88;;;15.50;91.00;;;;;;5058179;28;20055;-70
2021/10/03 05:28:07;;;;;;;1.40;1.30;;;15.50;91.00;;;;;;5062883;28;20498;-70
2021/10/03 05:30:33;;;;;;;1.67;1.58;;;15.50;91.20;;;;;;5055487;28;20126;-70
2021/10/03 05:32:58;;;;;;;2.50;1.30;;;15.50;91.30;;;;;;5060387;28;20033;-70
2021/10/03 05:35:24;;;;;;;4.15;1.38;;;15.50;91.10;;;;;;5066567;28;20056;-71
2021/10/03 05:37:50;;;;;;;1.75;0.93;;;15.50;91.00;;;;;;5064058;28;20487;-71
2021/10/03 05:40:16;;;;;;;1.27;1.17;;;15.50;90.90;;;;;;5061671;28;20033;-74
2021/10/03 05:42:42;;;;;;;2.20;1.45;;;15.50;91.10;;;;;;5061890;28;20508;-70
2021/10/03 05:45:08;;;;;;;1.33;1.23;;;15.50;91.10;;;;;;5057338;28;20123;-68
2021/10/03 05:47:34;;;;;;;0.75;0.70;;;15.50;91.10;;;;;;5067624;28;20052;-69
2021/10/03 05:49:59;;;;;;;0.90;0.90;;;15.50;91.20;;;;;;5064678;28;20051;-69
2021/10/03 05:52:25;;;;;;;3.05;1.65;;;15.60;91.20;;;;;;5060842;28;20051;-69
2021/10/03 05:54:51;;;;;;;3.40;1.98;;;15.60;91.30;;;;;;5053682;28;20632;-70
2021/10/03 05:57:18;;;;;;;3.20;1.77;;;15.60;91.10;;;;;;5061506;28;20048;-70
2021/10/03 05:59:44;;;;;;;1.45;1.40;;;15.60;91.30;;;;;;5065909;28;20487;-71
2021/10/03 06:02:13;;;;;;;1.98;1.38;;;15.60;91.10;;;;;;5060502;28;20032;-72
2021/10/03 06:04:38;;;;;;;4.00;1.35;;;15.60;91.30;;;;;;5057045;28;20024;-71
2021/10/03 06:07:04;;;;;;;2.28;1.08;;;15.60;91.40;;;;;;5067200;28;20036;-71
2021/10/03 06:09:29;;;;;;;1.50;0.80;;;15.60;91.70;;;;;;5061612;28;20077;-70
2021/10/03 06:11:55;;;;;;;0.73;0.73;;;15.60;91.80;;;;;;5049650;28;20396;-72
2021/10/03 06:14:21;;;;;;;0.93;0.75;;;15.60;91.50;;;;;;5050364;28;20025;-73
2021/10/03 06:16:48;;;;;;;1.00;0.93;;;15.60;91.70;;;;;;5066402;28;20390;-72
2021/10/03 06:19:14;;;;;;;2.53;1.05;;;15.60;91.50;;;;;;5065654;28;20042;-72
2021/10/03 06:21:39;;;;;;;1.48;1.38;;;15.60;91.30;;;;;;5066397;28;20116;-72
2021/10/03 06:24:08;;;;;;;2.05;1.70;;;15.70;91.30;;;;;;5057468;28;20036;-72
2021/10/03 06:26:34;;;;;;;0.88;0.80;;;15.70;91.50;;;;;;5076243;28;20028;-73
2021/10/03 06:28:59;;;;;;;3.85;1.58;;;15.70;91.40;;;;;;5064083;28;20031;-73
2021/10/03 06:31:25;;;;;;;0.80;0.80;;;15.70;91.20;;;;;;5065633;28;20506;-72
2021/10/03 06:33:50;;;;;;;1.55;1.13;;;15.70;91.20;;;;;;5053239;28;20020;-73
2021/10/03 06:36:16;;;;;;;0.47;0.47;;;15.80;91.70;;;;;;5074822;28;20904;-73
2021/10/03 06:38:41;;;;;;;1.35;1.25;;;15.80;91.20;;;;;;5067090;28;20111;-73
2021/10/03 06:41:07;;;;;;;1.23;0.98;;;15.90;91.30;;;;;;5062553;28;20468;-72
2021/10/03 06:43:38;;;;;;;2.65;1.55;;;15.90;91.60;;;;;;5062789;28;20120;-72
2021/10/03 06:46:05;;;;;;;4.07;1.85;;;16.00;91.30;;;;;;5062351;28;20413;-73
2021/10/03 06:48:30;;;;;;;0.95;0.47;;;15.90;91.10;;;;;;5067306;28;20155;-72
2021/10/03 06:50:56;;;;;;;1.13;1.05;;;16.00;91.50;;;;;;5063046;28;20020;-73
2021/10/03 06:53:21;;;;;;;1.45;1.20;;;16.00;91.00;;;;;;5066211;28;20027;-73
2021/10/03 06:55:47;;;;;;;2.28;1.35;;;16.00;91.10;;;;;;5064034;28;20098;-72
2021/10/03 06:58:12;;;;;;;1.08;0.98;;;16.00;91.40;;;;;;5049769;28;20045;-73
2021/10/03 07:00:38;;;;;;;2.85;1.92;;;16.00;92.70;;;;;;5043359;28;20025;-73
2021/10/03 07:03:03;;;;;;;1.02;1.02;;;16.10;91.10;;;;;;5037686;28;20112;-73
2021/10/03 07:05:29;;;;;;;2.15;1.30;;;16.20;91.10;;;;;;5042692;28;21414;-73
2021/10/03 07:07:55;;;;;;;1.40;1.30;;;16.20;91.10;;;;;;5039914;28;20058;-73
2021/10/03 07:10:20;;;;;;;1.48;1.38;;;16.20;92.40;;;;;;5054629;28;20033;-73
2021/10/03 07:12:46;;;;;;;1.63;1.33;;;16.20;92.40;;;;;;5040080;28;20487;-72
2021/10/03 07:15:11;;;;;;;1.02;1.02;;;16.30;91.20;;;;;;5038605;28;20036;-73
2021/10/03 07:17:37;;;;;;;4.15;1.90;;;16.20;91.30;;;;;;5044737;28;20025;-73
2021/10/03 07:20:04;;;;;;;1.05;1.05;;;16.30;91.50;;;;;;5054246;28;20036;-72
2021/10/03 07:22:29;;;;;;;2.60;1.17;;;16.30;91.10;;;;;;5051957;28;20028;-73
2021/10/03 07:24:55;;;;;;;6.13;1.80;;;16.30;90.80;;;;;;5051540;28;20025;-72
2021/10/03 07:27:20;;;;;;;1.10;1.00;;;16.30;91.00;;;;;;5047730;28;20575;-73
2021/10/03 07:29:46;;;;;;;1.50;1.35;;;16.30;91.20;;;;;;5046217;28;20048;-73
2021/10/03 07:32:11;;;;;;;0.80;0.50;;;16.40;91.60;;;;;;5041080;28;20025;-73
2021/10/03 07:34:37;;;;;;;3.22;2.30;;;16.40;91.30;;;;;;5049961;28;20116;-72
2021/10/03 07:37:03;;;;;;;15.63;2.45;;;16.50;91.10;;;;;;5047550;28;20036;-69
2021/10/03 07:39:30;;;;;;;1.65;0.88;;;16.50;91.00;;;;;;5045782;28;20036;-69
2021/10/03 07:41:55;;;;;;;2.10;1.58;;;16.50;90.90;;;;;;5045261;28;20032;-69
2021/10/03 07:44:21;;;;;;;7.35;1.65;;;16.60;90.60;;;;;;5046186;28;20029;-69
2021/10/03 07:46:47;;;;;;;3.40;2.65;;;16.60;90.40;;;;;;5044419;28;20041;-69
2021/10/03 07:49:13;;;;;;;2.60;1.80;;;16.70;90.40;;;;;;5038387;28;20029;-71
2021/10/03 07:51:38;;;;;;;1.83;1.60;;;16.70;90.40;;;;;;5036989;28;20509;-71
2021/10/03 07:54:04;;;;;;;2.15;1.13;;;16.70;90.50;;;;;;5042816;28;20054;-71
2021/10/03 07:56:29;;;;;;;1.80;1.27;;;16.70;90.30;;;;;;5048061;28;20021;-71
2021/10/03 07:58:55;;;;;;;1.00;0.93;;;16.70;90.20;;;;;;5058473;28;20372;-70
2021/10/03 08:01:21;;;;;;;3.08;2.17;;;16.70;90.60;;;;;;5042131;28;20171;-71
2021/10/03 08:03:47;;;;;;;2.65;1.77;;;16.70;90.80;;;;;;5045298;28;20368;-70
2021/10/03 08:06:12;;;;;;;1.42;1.13;;;16.70;90.50;;;;;;5040171;28;20035;-70
2021/10/03 08:08:38;;;;;;;2.38;1.15;;;16.70;90.70;;;;;;5052345;28;20035;-70
2021/10/03 08:11:19;;;;;;;9.77;2.47;;;16.70;90.40;;;;;;5040483;28;20059;-71
2021/10/03 08:13:44;;;;;;;1.45;0.93;;;16.70;90.20;;;;;;5045573;28;20025;-70
2021/10/03 08:16:10;;;;;;;2.17;2.05;;;16.70;90.50;;;;;;5041312;28;20025;-71
2021/10/03 08:18:35;;;;;;;1.25;1.05;;;16.80;90.50;;;;;;5044305;28;20145;-71
2021/10/03 08:21:02;;;;;;;0.68;0.68;;;16.80;90.20;;;;;;5041929;28;20103;-71
2021/10/03 08:23:27;;;;;;;2.17;1.40;;;16.90;90.20;;;;;;5045423;28;20566;-71
2021/10/03 08:25:53;;;;;;;1.00;1.00;;;16.90;90.30;;;;;;5046467;28;20032;-71
2021/10/03 08:28:19;;;;;;;2.03;1.38;;;16.90;90.50;;;;;;5039476;28;22001;-72
2021/10/03 08:30:44;;;;;;;4.35;1.70;;;16.90;90.40;;;;;;5047804;28;20049;-71
2021/10/03 08:33:11;;;;;;;2.10;1.88;;;17.00;90.20;;;;;;5044337;28;20418;-71
2021/10/03 08:35:36;;;;;;;1.88;1.00;;;16.90;90.20;;;;;;5035338;28;20026;-71
2021/10/03 08:38:03;;;;;;;0.88;0.80;;;17.00;90.30;;;;;;5036902;28;20051;-71
2021/10/03 08:40:28;;;;;;;2.15;0.88;;;17.00;90.60;;;;;;5039045;28;20051;-71
2021/10/03 08:42:54;;;;;;;1.02;1.00;;;17.10;90.70;;;;;;5044319;28;20041;-71
2021/10/03 08:45:20;;;;;;;1.50;1.40;;;17.20;90.30;;;;;;5038170;28;20535;-71
2021/10/03 08:47:45;;;;;;;1.77;1.38;;;17.20;89.70;;;;;;5041798;28;20032;-72
2021/10/03 08:50:14;;;;;;;0.70;0.70;;;17.20;90.00;;;;;;5040749;28;20522;-71
2021/10/03 08:52:42;;;;;;;2.67;1.67;;;17.30;90.00;;;;;;5024003;28;20047;-71
2021/10/03 08:55:09;;;;;;;1.23;1.17;;;17.30;89.20;;;;;;5036061;28;20030;-69
2021/10/03 08:57:35;;;;;;;5.38;2.17;;;17.40;88.80;;;;;;5050849;28;20037;-70
2021/10/03 09:00:04;;;;;;;10.13;1.65;;;17.50;89.20;;;;;;5049974;28;20029;-71
2021/10/03 09:02:29;;;;;;;1.27;1.20;;;17.60;88.90;;;;;;5057369;28;20086;-70
2021/10/03 09:04:58;;;;;;;1.85;1.10;;;17.80;88.60;;;;;;5071144;28;20028;-71
2021/10/03 09:07:24;;;;;;;0.98;0.98;;;17.90;87.60;;;;;;5065257;28;20028;-72
2021/10/03 09:09:58;;;;;;;2.05;1.60;;;18.00;88.00;;;;;;5077197;28;20024;-70
2021/10/03 09:12:33;;;;;;;1.13;1.02;;;18.00;86.40;;;;;;5045338;28;20441;-71
2021/10/03 09:15:02;;;;;;;0.73;0.73;;;18.00;88.40;;;;;;5043087;28;20495;-72
2021/10/03 09:17:30;;;;;;;2.35;2.03;;;18.00;89.30;;;;;;5050711;28;20028;-72
2021/10/03 09:20:21;;;;;;;0.55;0.50;;;18.00;87.10;;;;;;5058116;28;20040;-74
2021/10/03 09:22:55;;;;;;;1.52;1.02;;;18.00;87.70;;;;;;5047016;28;20028;-74
2021/10/03 09:25:45;;;;;;;2.22;1.48;;;17.90;87.30;;;;;;5057790;28;20041;-76
2021/10/03 09:28:20;;;;;;;2.53;1.45;;;17.90;88.00;;;;;;5057023;28;20029;-71
2021/10/03 09:31:01;;;;;;;0.98;0.73;;;17.90;88.20;;;;;;5053078;28;20088;-72
2021/10/03 09:33:48;;;;;;;1.10;1.05;;;17.80;88.30;;;;;;5043642;28;20029;-70
2021/10/03 09:36:17;;;;;;;2.45;1.75;;;17.80;88.70;;;;;;5055887;28;20564;-72
2021/10/03 09:38:44;;;;;;;1.67;1.58;;;17.80;88.00;;;;;;5051485;28;20613;-81
2021/10/03 09:41:10;;;;;;;1.33;1.08;;;17.80;88.70;;;;;;5058265;28;20025;-73
2021/10/03 09:43:42;;;;;;;2.08;1.35;;;17.80;89.00;;;;;;5063297;28;20024;-73
2021/10/03 09:46:08;;;;;;;;;;;17.90;87.90;;;;;;5062565;28;20082;-74
2021/10/03 09:48:46;;;;;;;0.93;0.65;;;18.00;87.60;;;;;;5064527;28;20266;-75
2021/10/03 09:51:12;;;;;;;2.65;0.75;;;18.10;87.20;;;;;;5063723;28;20020;-74
2021/10/03 09:53:38;;;;;;;1.42;1.33;;;18.10;86.90;;;;;;5063658;28;20009;-75
2021/10/03 09:56:04;;;;;;;0.60;0.60;;;18.20;86.50;;;;;;5060803;28;20055;-74
2021/10/03 09:58:36;;;;;;;18.10;1.15;;;18.30;86.60;;;;;;5055357;28;20052;-74
2021/10/03 10:01:03;;;;;;;1.27;1.17;;;18.30;86.60;;;;;;5060909;28;20036;-73
2021/10/03 10:03:30;;;;;;;2.78;2.20;;;18.30;88.80;;;;;;5044610;28;20071;-74
2021/10/03 10:05:56;;;;;;;1.63;1.52;;;18.30;87.10;;;;;;5059171;28;20035;-74
2021/10/03 10:08:21;;;;;;;1.17;1.08;;;18.40;86.90;;;;;;5062568;28;20035;-74
2021/10/03 10:10:48;;;;;;;2.15;1.67;;;18.40;87.00;;;;;;5065573;28;20025;-74
2021/10/03 10:13:17;;;;;;;1.38;1.15;;;18.50;87.00;;;;;;5059192;28;20029;-75
2021/10/03 10:15:42;;;;;;;0.60;0.55;;;18.50;87.30;;;;;;5064269;28;20033;-74
2021/10/03 10:18:22;;;;;;;1.45;1.35;;;18.60;88.00;;;;;;5061419;28;20032;-74
2021/10/03 10:20:49;;;;;;;2.30;1.08;;;18.70;86.50;;;;;;5061097;28;20028;-74
2021/10/03 10:23:18;;;;;;;0.93;0.75;;;18.80;86.90;;;;;;5063539;28;20036;-74
2021/10/03 10:25:51;;;;;;;1.58;0.98;;;18.90;86.00;;;;;;5065133;28;20036;-73
2021/10/03 10:28:27;;;;;;;2.97;1.65;;;19.00;85.10;;;;;;5063515;28;20502;-74
2021/10/03 10:31:08;;;;;;;0.95;0.95;;;19.10;85.60;;;;;;5058085;28;20463;-72
2021/10/03 10:33:56;;;;;;;1.65;1.27;;;19.30;85.80;;;;;;5062175;28;20041;-73
2021/10/03 10:36:53;;;;;;;0.28;0.28;;;19.40;86.00;;;;;;5065884;28;20036;-75
2021/10/03 10:39:21;;;;;;;1.25;1.13;;;19.50;84.90;;;;;;5062176;28;20070;-74
2021/10/03 10:41:59;;;;;;;1.33;1.15;;;19.60;84.90;;;;;;5062549;28;20082;-74
2021/10/03 10:44:25;;;;;;;2.45;1.52;;;19.80;84.90;;;;;;5063661;28;20056;-74
2021/10/03 10:46:55;;;;;;;1.42;0.88;;;20.00;86.50;;;;;;5064658;28;20035;-75
2021/10/03 10:49:27;;;;;;;4.18;0.90;;;20.10;85.00;;;;;;5060910;28;20051;-74
2021/10/03 10:52:18;;;;;;;1.27;1.17;;;20.20;82.90;;;;;;5060696;28;20386;-74
2021/10/03 10:55:01;;;;;;;1.73;1.17;;;20.40;83.90;;;;;;5068085;28;20028;-74
2021/10/03 10:57:28;;;;;;;1.55;0.80;;;20.50;80.70;;;;;;5056298;28;20048;-75
2021/10/03 11:00:19;;;;;;;2.20;1.60;;;20.60;80.90;;;;;;5036406;28;20124;-74
2021/10/03 11:02:49;;;;;;;5.10;1.67;;;20.70;80.90;;;;;;5044870;28;20526;-74
2021/10/03 11:05:36;;;;;;;5.22;1.98;;;20.70;79.30;;;;;;5038160;28;20060;-74
2021/10/03 11:08:11;;;;;;;2.83;1.40;;;20.80;79.00;;;;;;5035995;28;20395;-74
2021/10/03 11:10:56;;;;;;;1.13;1.05;;;20.80;77.90;;;;;;5037099;28;20078;-74
2021/10/03 11:13:43;;;;;;;1.23;0.88;;;20.90;78.60;;;;;;5033290;28;20091;-73
2021/10/03 11:16:31;;;;;;;1.17;1.02;;;21.20;78.20;;;;;;5040175;28;20447;-76
2021/10/03 11:19:02;;;;;;;0.75;0.68;;;21.60;74.40;;;;;;5037117;28;20036;-72
2021/10/03 11:21:33;;;;;;;2.35;0.95;;;21.80;73.60;;;;;;5032482;28;20398;-72
2021/10/03 11:24:02;;;;;;;1.65;1.20;;;22.00;72.60;;;;;;5041206;28;20025;-72
2021/10/03 11:26:59;;;;;;;1.25;1.08;;;22.10;73.30;;;;;;5036918;28;20132;-72
2021/10/03 11:29:46;;;;;;;2.67;1.85;;;22.30;74.30;;;;;;5033615;28;20841;-74
2021/10/03 11:32:13;;;;;;;2.10;1.00;;;22.40;75.10;;;;;;5030981;28;20111;-75
2021/10/03 11:34:42;;;;;;;1.20;1.10;;;22.70;71.80;;;;;;5038935;28;20036;-75
2021/10/03 11:37:14;;;;;;;0.55;0.55;;;23.20;69.70;;;;;;5037775;28;20033;-75
2021/10/03 11:39:52;;;;;;;4.43;2.17;;;23.70;70.90;;;;;;5040060;28;20082;-75
2021/10/03 11:42:53;;;;;;;1.10;1.08;;;24.10;68.70;;;;;;5037903;28;20249;-74
2021/10/03 11:45:27;;;;;;;2.25;1.15;;;24.50;63.90;;;;;;5042600;28;20029;-75
2021/10/03 11:48:04;;;;;;;1.27;0.90;;;24.90;65.00;;;;;;5043629;28;20037;-75
2021/10/03 11:50:40;;;;;;;2.05;1.00;;;25.00;62.30;;;;;;5040127;28;20029;-75
2021/10/03 11:53:21;;;;;;;0.70;0.70;;;25.00;60.40;;;;;;5035121;28;20755;-74
2021/10/03 11:55:49;;;;;;;1.55;1.20;;;25.10;62.00;;;;;;5044617;28;20045;-73
2021/10/03 11:58:17;;;;;;;2.47;1.52;;;24.90;61.20;;;;;;5053746;28;20044;-74
2021/10/03 12:01:01;;;;;;;1.05;0.85;;;25.00;60.60;;;;;;5058389;28;20483;-74
2021/10/03 12:03:29;;;;;;;2.20;1.08;;;25.10;58.70;;;;;;5057390;28;20060;-74
2021/10/03 12:05:59;;;;;;;1.00;1.00;;;25.00;60.00;;;;;;5057038;28;20036;-71
2021/10/03 12:08:26;;;;;;;1.20;1.10;;;24.90;60.90;;;;;;5061934;28;20078;-72
2021/10/03 12:11:00;;;;;;;8.07;1.42;;;24.70;62.10;;;;;;5063058;28;20029;-72
2021/10/03 12:13:27;;;;;;;0.55;0.55;;;24.60;62.80;;;;;;5058402;28;20028;-71
2021/10/03 12:15:53;;;;;;;1.13;1.02;;;24.30;61.50;;;;;;5056441;28;20035;-72
2021/10/03 12:18:24;;;;;;;1.27;0.75;;;24.10;63.60;;;;;;5055321;28;20119;-72
2021/10/03 12:21:12;;;;;;;2.17;1.65;;;23.90;64.20;;;;;;5057750;28;20426;-71
2021/10/03 12:24:07;;;;;;;1.58;1.48;;;23.80;65.60;;;;;;5054461;28;20032;-70
2021/10/03 12:26:49;;;;;;;4.43;2.13;;;23.60;65.60;;;;;;5041917;28;20032;-71
2021/10/03 12:29:26;;;;;;;0.88;0.88;;;23.60;64.30;;;;;;5057855;28;20555;-70
2021/10/03 12:32:11;;;;;;;17.98;1.33;;;23.50;63.60;;;;;;5052703;28;20111;-72
2021/10/03 12:34:42;;;;;;;2.15;1.42;;;23.40;65.40;;;;;;5054051;28;20029;-73
2021/10/03 12:37:13;;;;;;;1.65;1.40;;;23.40;64.30;;;;;;5049963;28;20046;-72
2021/10/03 12:39:51;;;;;;;1.30;1.20;;;23.40;65.50;;;;;;5041877;28;20394;-71
2021/10/03 12:42:22;;;;;;;1.30;1.20;;;23.60;66.80;;;;;;5054991;28;20410;-71
2021/10/03 12:44:49;;;;;;;0.85;0.70;;;23.70;65.00;;;;;;5055028;28;20035;-71
2021/10/03 12:47:16;;;;;;;1.30;1.20;;;23.90;66.30;;;;;;5051811;28;20047;-72
2021/10/03 12:49:42;;;;;;;1.08;1.08;;;24.20;62.90;;;;;;5053165;28;20033;-72
2021/10/03 12:52:10;;;;;;;4.22;0.77;;;24.30;60.30;;;;;;5048742;28;20502;-72
2021/10/03 12:54:37;;;;;;;2.35;1.40;;;24.50;60.50;;;;;;5053160;28;20155;-71